Terminal Aerodrome Forecast
Issued by NWS North Platte, NE

Home | Current Version | Previous Version | Text Only | Print | Product List | Glossary On
Versions: 1 2 3 4 5 6 7 8 9 10 11 12 13 14 15 16
000
FTUS43 KLBF 212322
TAFVTN
TAF
KVTN 212322Z 2200/2224 01009KT P6SM FEW250
     FM220200 03007KT P6SM FEW250
     FM220700 03007KT P6SM SCT200
     FM221300 03009KT P6SM SCT150
     FM221500 02014G21KT P6SM BKN060
     FM221900 36013G19KT P6SM SCT070=

USA.gov is the U.S. government's official web portal to all federal, state and local government web resources and services.